Weather at CdV Ass.Sp. Parvolo

Public forecast

Using degrees Celsius for public forecast. Weather courtesy of forecast.io.

Closest aviation weather report (METAR) to CdV Ass.Sp. Parvolo

Closest report is Aviano Air Base, 14.5 nm (26.9 km) NNW.

2024/07/16 18:55 (retrieved 46 minutes ago)

LIPA 161855Z 32002KT CAVOK 29/24 Q1011

Closest aviation forecast (TAF) to CdV Ass.Sp. Parvolo

Closest forecast is Venice Marco Polo Airport, 25.1 nm (46.5 km) SW.

2024/07/16 18:20 (retrieved 1 hour ago)

TAF LIPZ 161700Z 1618/1724 VRB05KT CAVOK BECMG 1703/1705 05010KT BECMG 1710/1712 VRB05KT BECMG 1720/1722 04010KT